sensor_id;sensor_type;location;lat;lon;timestamp;P1;durP1;ratioP1;P2;durP2;ratioP2
25717;SDS011;13574;52.040;5.692;2023-05-14T00:01:19;12.68;;;8.98;;
25717;SDS011;13574;52.040;5.692;2023-05-14T00:03:45;15.43;;;10.50;;
25717;SDS011;13574;52.040;5.692;2023-05-14T00:06:10;13.18;;;9.88;;
25717;SDS011;13574;52.040;5.692;2023-05-14T00:08:36;14.15;;;9.65;;
25717;SDS011;13574;52.040;5.692;2023-05-14T00:11:01;14.77;;;10.85;;
25717;SDS011;13574;52.040;5.692;2023-05-14T00:13:27;15.15;;;10.60;;
25717;SDS011;13574;52.040;5.692;2023-05-14T00:15:53;16.48;;;11.07;;
25717;SDS011;13574;52.040;5.692;2023-05-14T00:18:19;16.73;;;11.27;;
25717;SDS011;13574;52.040;5.692;2023-05-14T00:20:45;19.73;;;12.10;;
25717;SDS011;13574;52.040;5.692;2023-05-14T00:23:10;18.45;;;12.05;;
25717;SDS011;13574;52.040;5.692;2023-05-14T00:25:36;17.48;;;12.15;;
25717;SDS011;13574;52.040;5.692;2023-05-14T00:28:02;16.15;;;11.93;;
25717;SDS011;13574;52.040;5.692;2023-05-14T00:30:28;17.50;;;12.18;;
25717;SDS011;13574;52.040;5.692;2023-05-14T00:32:54;16.70;;;11.82;;
25717;SDS011;13574;52.040;5.692;2023-05-14T00:35:20;17.40;;;11.98;;
25717;SDS011;13574;52.040;5.692;2023-05-14T00:37:45;19.38;;;12.45;;
25717;SDS011;13574;52.040;5.692;2023-05-14T00:40:11;17.25;;;12.88;;
25717;SDS011;13574;52.040;5.692;2023-05-14T00:42:38;20.25;;;13.45;;
25717;SDS011;13574;52.040;5.692;2023-05-14T00:45:04;20.02;;;13.35;;
25717;SDS011;13574;52.040;5.692;2023-05-14T00:47:31;18.48;;;13.80;;
25717;SDS011;13574;52.040;5.692;2023-05-14T00:49:58;19.27;;;13.15;;
25717;SDS011;13574;52.040;5.692;2023-05-14T00:52:25;19.88;;;12.63;;
25717;SDS011;13574;52.040;5.692;2023-05-14T00:54:51;20.95;;;12.88;;
25717;SDS011;13574;52.040;5.692;2023-05-14T00:57:18;17.83;;;12.68;;
25717;SDS011;13574;52.040;5.692;2023-05-14T00:59:44;18.35;;;12.38;;
25717;SDS011;13574;52.040;5.692;2023-05-14T01:02:09;18.63;;;12.32;;
25717;SDS011;13574;52.040;5.692;2023-05-14T01:04:35;16.77;;;12.07;;
25717;SDS011;13574;52.040;5.692;2023-05-14T01:12:16;18.23;;;12.30;;
25717;SDS011;13574;52.040;5.692;2023-05-14T01:15:10;20.07;;;12.63;;
25717;SDS011;13574;52.040;5.692;2023-05-14T01:17:58;17.63;;;11.90;;
25717;SDS011;13574;52.040;5.692;2023-05-14T01:20:30;20.75;;;13.88;;
25717;SDS011;13574;52.040;5.692;2023-05-14T01:22:56;19.45;;;12.73;;
25717;SDS011;13574;52.040;5.692;2023-05-14T01:25:21;18.70;;;12.48;;
25717;SDS011;13574;52.040;5.692;2023-05-14T01:30:39;22.17;;;12.98;;
25717;SDS011;13574;52.040;5.692;2023-05-14T01:33:20;19.05;;;12.88;;
25717;SDS011;13574;52.040;5.692;2023-05-14T01:35:48;17.48;;;12.25;;
25717;SDS011;13574;52.040;5.692;2023-05-14T01:38:17;17.83;;;12.68;;
25717;SDS011;13574;52.040;5.692;2023-05-14T01:40:44;21.67;;;12.82;;
25717;SDS011;13574;52.040;5.692;2023-05-14T01:43:11;18.55;;;13.07;;
25717;SDS011;13574;52.040;5.692;2023-05-14T01:45:38;18.95;;;12.40;;
25717;SDS011;13574;52.040;5.692;2023-05-14T01:48:04;18.75;;;11.90;;
25717;SDS011;13574;52.040;5.692;2023-05-14T01:50:29;19.25;;;12.65;;
25717;SDS011;13574;52.040;5.692;2023-05-14T01:52:55;21.05;;;12.43;;
25717;SDS011;13574;52.040;5.692;2023-05-14T01:55:21;18.38;;;12.48;;
25717;SDS011;13574;52.040;5.692;2023-05-14T01:57:48;17.10;;;11.95;;
25717;SDS011;13574;52.040;5.692;2023-05-14T02:00:14;17.92;;;12.63;;
25717;SDS011;13574;52.040;5.692;2023-05-14T02:02:40;19.00;;;13.52;;
25717;SDS011;13574;52.040;5.692;2023-05-14T02:05:06;18.17;;;12.85;;
25717;SDS011;13574;52.040;5.692;2023-05-14T02:07:32;19.23;;;12.88;;
25717;SDS011;13574;52.040;5.692;2023-05-14T02:09:58;18.63;;;12.43;;
25717;SDS011;13574;52.040;5.692;2023-05-14T02:12:24;18.55;;;12.52;;
25717;SDS011;13574;52.040;5.692;2023-05-14T02:14:50;22.23;;;13.40;;
25717;SDS011;13574;52.040;5.692;2023-05-14T02:17:16;19.85;;;13.05;;
25717;SDS011;13574;52.040;5.692;2023-05-14T02:19:42;20.30;;;12.48;;
25717;SDS011;13574;52.040;5.692;2023-05-14T02:22:08;19.27;;;12.52;;
25717;SDS011;13574;52.040;5.692;2023-05-14T02:24:34;18.02;;;12.27;;
25717;SDS011;13574;52.040;5.692;2023-05-14T02:27:00;19.92;;;12.57;;
25717;SDS011;13574;52.040;5.692;2023-05-14T02:29:26;19.63;;;12.40;;
25717;SDS011;13574;52.040;5.692;2023-05-14T02:31:51;18.67;;;12.50;;
25717;SDS011;13574;52.040;5.692;2023-05-14T02:34:17;21.15;;;13.32;;
25717;SDS011;13574;52.040;5.692;2023-05-14T02:36:43;21.05;;;13.65;;
25717;SDS011;13574;52.040;5.692;2023-05-14T02:39:08;21.48;;;14.10;;
25717;SDS011;13574;52.040;5.692;2023-05-14T02:41:34;21.58;;;13.38;;
25717;SDS011;13574;52.040;5.692;2023-05-14T02:44:00;21.02;;;14.20;;
25717;SDS011;13574;52.040;5.692;2023-05-14T02:46:26;22.95;;;13.88;;
25717;SDS011;13574;52.040;5.692;2023-05-14T02:48:51;21.90;;;13.10;;
25717;SDS011;13574;52.040;5.692;2023-05-14T02:51:18;22.08;;;14.27;;
25717;SDS011;13574;52.040;5.692;2023-05-14T02:53:45;25.08;;;14.38;;
25717;SDS011;13574;52.040;5.692;2023-05-14T02:56:11;21.75;;;13.90;;
25717;SDS011;13574;52.040;5.692;2023-05-14T02:58:40;21.42;;;13.45;;
25717;SDS011;13574;52.040;5.692;2023-05-14T03:01:06;22.92;;;15.05;;
25717;SDS011;13574;52.040;5.692;2023-05-14T03:03:32;21.50;;;13.93;;
25717;SDS011;13574;52.040;5.692;2023-05-14T03:05:58;22.33;;;13.98;;
25717;SDS011;13574;52.040;5.692;2023-05-14T03:08:24;24.30;;;14.30;;
25717;SDS011;13574;52.040;5.692;2023-05-14T03:10:50;19.13;;;13.25;;
25717;SDS011;13574;52.040;5.692;2023-05-14T03:13:15;21.02;;;13.95;;
25717;SDS011;13574;52.040;5.692;2023-05-14T03:15:43;20.85;;;13.98;;
25717;SDS011;13574;52.040;5.692;2023-05-14T03:18:09;24.30;;;13.68;;
25717;SDS011;13574;52.040;5.692;2023-05-14T03:20:35;21.88;;;14.00;;
25717;SDS011;13574;52.040;5.692;2023-05-14T03:23:01;21.83;;;13.60;;
25717;SDS011;13574;52.040;5.692;2023-05-14T03:25:26;23.48;;;13.75;;
25717;SDS011;13574;52.040;5.692;2023-05-14T03:27:52;25.92;;;14.35;;
25717;SDS011;13574;52.040;5.692;2023-05-14T03:30:18;26.25;;;15.30;;
25717;SDS011;13574;52.040;5.692;2023-05-14T03:32:43;21.02;;;13.57;;
25717;SDS011;13574;52.040;5.692;2023-05-14T03:35:09;25.70;;;14.68;;
25717;SDS011;13574;52.040;5.692;2023-05-14T03:37:35;22.05;;;14.23;;
25717;SDS011;13574;52.040;5.692;2023-05-14T03:40:01;24.00;;;14.10;;
25717;SDS011;13574;52.040;5.692;2023-05-14T03:42:26;22.83;;;13.23;;
25717;SDS011;13574;52.040;5.692;2023-05-14T03:44:52;21.50;;;13.98;;
25717;SDS011;13574;52.040;5.692;2023-05-14T03:47:17;22.40;;;14.05;;
25717;SDS011;13574;52.040;5.692;2023-05-14T03:49:43;22.58;;;13.90;;
25717;SDS011;13574;52.040;5.692;2023-05-14T03:52:09;22.48;;;14.18;;
25717;SDS011;13574;52.040;5.692;2023-05-14T03:54:34;23.27;;;13.13;;
25717;SDS011;13574;52.040;5.692;2023-05-14T03:57:00;22.80;;;13.10;;
25717;SDS011;13574;52.040;5.692;2023-05-14T03:59:26;25.63;;;14.50;;
25717;SDS011;13574;52.040;5.692;2023-05-14T04:01:52;24.77;;;13.38;;
25717;SDS011;13574;52.040;5.692;2023-05-14T04:04:18;22.58;;;14.38;;
25717;SDS011;13574;52.040;5.692;2023-05-14T04:06:43;23.00;;;13.82;;
25717;SDS011;13574;52.040;5.692;2023-05-14T04:09:09;22.05;;;13.48;;
25717;SDS011;13574;52.040;5.692;2023-05-14T04:11:35;26.80;;;14.00;;
25717;SDS011;13574;52.040;5.692;2023-05-14T04:14:01;21.02;;;13.30;;
25717;SDS011;13574;52.040;5.692;2023-05-14T04:16:27;21.42;;;13.15;;
25717;SDS011;13574;52.040;5.692;2023-05-14T04:18:52;27.55;;;14.35;;
25717;SDS011;13574;52.040;5.692;2023-05-14T04:21:18;24.48;;;14.32;;
25717;SDS011;13574;52.040;5.692;2023-05-14T04:23:44;26.58;;;14.15;;
25717;SDS011;13574;52.040;5.692;2023-05-14T04:26:09;23.05;;;13.45;;
25717;SDS011;13574;52.040;5.692;2023-05-14T04:28:35;24.55;;;13.98;;
25717;SDS011;13574;52.040;5.692;2023-05-14T04:31:01;21.77;;;13.98;;
25717;SDS011;13574;52.040;5.692;2023-05-14T04:33:26;24.90;;;14.43;;
25717;SDS011;13574;52.040;5.692;2023-05-14T04:35:52;25.17;;;14.25;;
25717;SDS011;13574;52.040;5.692;2023-05-14T04:38:18;23.90;;;13.68;;
25717;SDS011;13574;52.040;5.692;2023-05-14T04:40:43;23.73;;;14.02;;
25717;SDS011;13574;52.040;5.692;2023-05-14T04:43:09;23.35;;;13.77;;
25717;SDS011;13574;52.040;5.692;2023-05-14T04:45:35;23.67;;;14.35;;
25717;SDS011;13574;52.040;5.692;2023-05-14T04:48:01;23.10;;;13.90;;
25717;SDS011;13574;52.040;5.692;2023-05-14T04:50:29;26.27;;;14.48;;
25717;SDS011;13574;52.040;5.692;2023-05-14T04:52:54;25.40;;;14.10;;
25717;SDS011;13574;52.040;5.692;2023-05-14T04:55:20;24.88;;;13.93;;
25717;SDS011;13574;52.040;5.692;2023-05-14T04:57:46;23.88;;;14.05;;
25717;SDS011;13574;52.040;5.692;2023-05-14T05:00:13;23.98;;;13.27;;
25717;SDS011;13574;52.040;5.692;2023-05-14T05:02:47;26.00;;;14.00;;
25717;SDS011;13574;52.040;5.692;2023-05-14T05:05:13;24.75;;;14.38;;
25717;SDS011;13574;52.040;5.692;2023-05-14T05:07:38;24.35;;;14.48;;
25717;SDS011;13574;52.040;5.692;2023-05-14T05:10:04;24.45;;;14.05;;
25717;SDS011;13574;52.040;5.692;2023-05-14T05:12:30;22.77;;;13.23;;
25717;SDS011;13574;52.040;5.692;2023-05-14T05:14:56;22.38;;;14.18;;
25717;SDS011;13574;52.040;5.692;2023-05-14T05:17:22;23.80;;;13.63;;
25717;SDS011;13574;52.040;5.692;2023-05-14T05:19:48;24.52;;;13.77;;
25717;SDS011;13574;52.040;5.692;2023-05-14T05:22:14;20.63;;;13.45;;
25717;SDS011;13574;52.040;5.692;2023-05-14T05:24:40;22.83;;;13.82;;
25717;SDS011;13574;52.040;5.692;2023-05-14T05:27:05;21.42;;;13.57;;
25717;SDS011;13574;52.040;5.692;2023-05-14T05:29:31;23.52;;;13.15;;
25717;SDS011;13574;52.040;5.692;2023-05-14T05:31:57;20.75;;;13.10;;
25717;SDS011;13574;52.040;5.692;2023-05-14T05:34:23;22.05;;;13.70;;
25717;SDS011;13574;52.040;5.692;2023-05-14T05:36:49;21.30;;;12.82;;
25717;SDS011;13574;52.040;5.692;2023-05-14T05:39:15;21.98;;;13.00;;
25717;SDS011;13574;52.040;5.692;2023-05-14T05:41:40;21.30;;;12.82;;
25717;SDS011;13574;52.040;5.692;2023-05-14T05:44:07;24.65;;;13.00;;
25717;SDS011;13574;52.040;5.692;2023-05-14T05:46:33;19.80;;;12.90;;
25717;SDS011;13574;52.040;5.692;2023-05-14T05:48:59;20.48;;;11.95;;
25717;SDS011;13574;52.040;5.692;2023-05-14T05:51:24;20.92;;;12.65;;
25717;SDS011;13574;52.040;5.692;2023-05-14T05:53:50;24.30;;;12.38;;
25717;SDS011;13574;52.040;5.692;2023-05-14T05:56:16;20.13;;;12.77;;
25717;SDS011;13574;52.040;5.692;2023-05-14T05:58:41;20.92;;;12.18;;
25717;SDS011;13574;52.040;5.692;2023-05-14T06:01:07;25.27;;;13.38;;
25717;SDS011;13574;52.040;5.692;2023-05-14T06:03:33;18.85;;;12.27;;
25717;SDS011;13574;52.040;5.692;2023-05-14T06:05:58;19.45;;;12.50;;
25717;SDS011;13574;52.040;5.692;2023-05-14T06:08:24;21.45;;;12.77;;
25717;SDS011;13574;52.040;5.692;2023-05-14T06:10:49;19.88;;;12.50;;
25717;SDS011;13574;52.040;5.692;2023-05-14T06:13:15;19.52;;;11.75;;
25717;SDS011;13574;52.040;5.692;2023-05-14T06:15:41;22.15;;;12.02;;
25717;SDS011;13574;52.040;5.692;2023-05-14T06:18:07;17.67;;;11.75;;
25717;SDS011;13574;52.040;5.692;2023-05-14T06:20:32;20.02;;;12.27;;
25717;SDS011;13574;52.040;5.692;2023-05-14T06:22:58;19.45;;;11.50;;
25717;SDS011;13574;52.040;5.692;2023-05-14T06:25:24;20.25;;;12.73;;
25717;SDS011;13574;52.040;5.692;2023-05-14T06:27:50;18.40;;;11.98;;
25717;SDS011;13574;52.040;5.692;2023-05-14T06:30:15;17.48;;;11.02;;
25717;SDS011;13574;52.040;5.692;2023-05-14T06:32:41;17.73;;;11.48;;
25717;SDS011;13574;52.040;5.692;2023-05-14T06:35:07;20.23;;;11.32;;
25717;SDS011;13574;52.040;5.692;2023-05-14T06:37:33;22.17;;;12.15;;
25717;SDS011;13574;52.040;5.692;2023-05-14T06:39:59;18.92;;;11.85;;
25717;SDS011;13574;52.040;5.692;2023-05-14T06:42:25;17.48;;;11.60;;
25717;SDS011;13574;52.040;5.692;2023-05-14T06:44:51;16.98;;;10.77;;
25717;SDS011;13574;52.040;5.692;2023-05-14T06:47:19;19.02;;;11.63;;
25717;SDS011;13574;52.040;5.692;2023-05-14T06:49:44;17.05;;;11.25;;
25717;SDS011;13574;52.040;5.692;2023-05-14T06:52:10;16.52;;;11.10;;
25717;SDS011;13574;52.040;5.692;2023-05-14T06:54:36;17.33;;;11.50;;
25717;SDS011;13574;52.040;5.692;2023-05-14T06:57:02;18.58;;;10.65;;
25717;SDS011;13574;52.040;5.692;2023-05-14T06:59:27;17.40;;;10.63;;
25717;SDS011;13574;52.040;5.692;2023-05-14T07:01:53;13.75;;;10.23;;
25717;SDS011;13574;52.040;5.692;2023-05-14T07:04:19;15.98;;;10.30;;
25717;SDS011;13574;52.040;5.692;2023-05-14T07:06:45;14.90;;;10.45;;
25717;SDS011;13574;52.040;5.692;2023-05-14T07:09:10;11.63;;;9.23;;
25717;SDS011;13574;52.040;5.692;2023-05-14T07:11:37;13.93;;;10.20;;
25717;SDS011;13574;52.040;5.692;2023-05-14T07:14:02;15.65;;;10.55;;
25717;SDS011;13574;52.040;5.692;2023-05-14T07:16:28;14.88;;;10.02;;
25717;SDS011;13574;52.040;5.692;2023-05-14T07:18:54;14.35;;;9.80;;
25717;SDS011;13574;52.040;5.692;2023-05-14T07:21:20;11.82;;;9.43;;
25717;SDS011;13574;52.040;5.692;2023-05-14T07:23:45;14.38;;;9.52;;
25717;SDS011;13574;52.040;5.692;2023-05-14T07:26:11;13.55;;;9.57;;
25717;SDS011;13574;52.040;5.692;2023-05-14T07:28:36;17.02;;;10.23;;
25717;SDS011;13574;52.040;5.692;2023-05-14T07:31:02;13.07;;;9.70;;
25717;SDS011;13574;52.040;5.692;2023-05-14T07:33:33;15.50;;;10.43;;
25717;SDS011;13574;52.040;5.692;2023-05-14T07:36:02;13.88;;;9.63;;
25717;SDS011;13574;52.040;5.692;2023-05-14T07:38:27;13.88;;;9.15;;
25717;SDS011;13574;52.040;5.692;2023-05-14T07:40:53;12.05;;;9.50;;
25717;SDS011;13574;52.040;5.692;2023-05-14T07:43:19;13.93;;;9.07;;
25717;SDS011;13574;52.040;5.692;2023-05-14T07:45:45;12.60;;;9.27;;
25717;SDS011;13574;52.040;5.692;2023-05-14T07:48:10;11.75;;;8.98;;
25717;SDS011;13574;52.040;5.692;2023-05-14T07:50:36;11.50;;;8.98;;
25717;SDS011;13574;52.040;5.692;2023-05-14T07:53:02;11.02;;;8.75;;
25717;SDS011;13574;52.040;5.692;2023-05-14T07:55:27;14.38;;;8.65;;
25717;SDS011;13574;52.040;5.692;2023-05-14T07:57:53;10.50;;;8.45;;
25717;SDS011;13574;52.040;5.692;2023-05-14T08:00:19;9.82;;;8.60;;
25717;SDS011;13574;52.040;5.692;2023-05-14T08:02:45;10.07;;;8.85;;
25717;SDS011;13574;52.040;5.692;2023-05-14T08:05:10;8.98;;;8.00;;
25717;SDS011;13574;52.040;5.692;2023-05-14T08:07:36;9.50;;;8.10;;
25717;SDS011;13574;52.040;5.692;2023-05-14T08:10:02;11.82;;;9.10;;
25717;SDS011;13574;52.040;5.692;2023-05-14T08:12:28;10.95;;;8.43;;
25717;SDS011;13574;52.040;5.692;2023-05-14T08:14:54;11.43;;;8.70;;
25717;SDS011;13574;52.040;5.692;2023-05-14T08:17:20;16.35;;;9.02;;
25717;SDS011;13574;52.040;5.692;2023-05-14T08:19:46;10.20;;;8.25;;
25717;SDS011;13574;52.040;5.692;2023-05-14T08:22:11;11.63;;;9.18;;
25717;SDS011;13574;52.040;5.692;2023-05-14T08:24:37;10.25;;;8.82;;
25717;SDS011;13574;52.040;5.692;2023-05-14T08:27:03;12.07;;;9.25;;
25717;SDS011;13574;52.040;5.692;2023-05-14T08:29:29;10.50;;;8.80;;
25717;SDS011;13574;52.040;5.692;2023-05-14T08:31:54;11.02;;;9.73;;
25717;SDS011;13574;52.040;5.692;2023-05-14T08:34:20;11.00;;;8.80;;
25717;SDS011;13574;52.040;5.692;2023-05-14T08:36:46;11.23;;;9.90;;
25717;SDS011;13574;52.040;5.692;2023-05-14T08:39:12;13.02;;;9.13;;
25717;SDS011;13574;52.040;5.692;2023-05-14T08:41:38;10.38;;;9.38;;
25717;SDS011;13574;52.040;5.692;2023-05-14T08:44:14;9.95;;;8.55;;
25717;SDS011;13574;52.040;5.692;2023-05-14T08:46:43;11.27;;;9.43;;
25717;SDS011;13574;52.040;5.692;2023-05-14T08:51:53;10.45;;;8.27;;
25717;SDS011;13574;52.040;5.692;2023-05-14T08:54:20;9.43;;;8.02;;
25717;SDS011;13574;52.040;5.692;2023-05-14T08:56:48;9.45;;;8.55;;
25717;SDS011;13574;52.040;5.692;2023-05-14T08:59:16;11.15;;;8.13;;
25717;SDS011;13574;52.040;5.692;2023-05-14T09:01:51;11.05;;;8.60;;
25717;SDS011;13574;52.040;5.692;2023-05-14T09:04:18;10.40;;;8.60;;
25717;SDS011;13574;52.040;5.692;2023-05-14T09:06:47;9.35;;;7.85;;
25717;SDS011;13574;52.040;5.692;2023-05-14T09:09:14;10.70;;;9.03;;
25717;SDS011;13574;52.040;5.692;2023-05-14T09:11:41;10.38;;;8.65;;
25717;SDS011;13574;52.040;5.692;2023-05-14T09:14:07;9.60;;;8.57;;
25717;SDS011;13574;52.040;5.692;2023-05-14T09:16:33;10.00;;;8.45;;
25717;SDS011;13574;52.040;5.692;2023-05-14T09:19:01;12.73;;;8.80;;
25717;SDS011;13574;52.040;5.692;2023-05-14T09:21:27;10.15;;;9.13;;
25717;SDS011;13574;52.040;5.692;2023-05-14T09:23:54;11.80;;;8.88;;
25717;SDS011;13574;52.040;5.692;2023-05-14T09:26:22;11.32;;;8.75;;
25717;SDS011;13574;52.040;5.692;2023-05-14T09:28:52;11.82;;;8.27;;
25717;SDS011;13574;52.040;5.692;2023-05-14T09:31:21;11.98;;;8.02;;
25717;SDS011;13574;52.040;5.692;2023-05-14T09:33:50;11.38;;;8.82;;
25717;SDS011;13574;52.040;5.692;2023-05-14T09:36:17;9.20;;;7.95;;
25717;SDS011;13574;52.040;5.692;2023-05-14T09:38:43;9.65;;;8.15;;
25717;SDS011;13574;52.040;5.692;2023-05-14T09:41:09;11.88;;;8.63;;
25717;SDS011;13574;52.040;5.692;2023-05-14T09:43:34;11.10;;;8.38;;
25717;SDS011;13574;52.040;5.692;2023-05-14T09:46:00;11.57;;;8.57;;
25717;SDS011;13574;52.040;5.692;2023-05-14T09:48:26;11.32;;;8.25;;
25717;SDS011;13574;52.040;5.692;2023-05-14T09:50:52;9.50;;;7.90;;
25717;SDS011;13574;52.040;5.692;2023-05-14T09:53:17;10.48;;;8.27;;
25717;SDS011;13574;52.040;5.692;2023-05-14T09:55:43;11.68;;;8.43;;
25717;SDS011;13574;52.040;5.692;2023-05-14T09:58:09;11.00;;;8.93;;
25717;SDS011;13574;52.040;5.692;2023-05-14T10:00:36;10.52;;;8.30;;
25717;SDS011;13574;52.040;5.692;2023-05-14T10:03:05;11.50;;;8.90;;
25717;SDS011;13574;52.040;5.692;2023-05-14T10:05:35;13.52;;;9.70;;
25717;SDS011;13574;52.040;5.692;2023-05-14T10:08:06;13.60;;;8.90;;
25717;SDS011;13574;52.040;5.692;2023-05-14T10:10:36;23.85;;;9.27;;
25717;SDS011;13574;52.040;5.692;2023-05-14T10:13:03;13.07;;;8.60;;
25717;SDS011;13574;52.040;5.692;2023-05-14T10:18:21;13.05;;;8.18;;
25717;SDS011;13574;52.040;5.692;2023-05-14T10:21:09;10.77;;;8.07;;
25717;SDS011;13574;52.040;5.692;2023-05-14T10:23:35;11.75;;;7.93;;
25717;SDS011;13574;52.040;5.692;2023-05-14T10:26:02;11.32;;;7.90;;
25717;SDS011;13574;52.040;5.692;2023-05-14T10:28:29;12.65;;;8.00;;
25717;SDS011;13574;52.040;5.692;2023-05-14T10:30:55;11.75;;;8.38;;
25717;SDS011;13574;52.040;5.692;2023-05-14T10:33:21;10.95;;;7.47;;
25717;SDS011;13574;52.040;5.692;2023-05-14T10:36:00;12.48;;;8.52;;
25717;SDS011;13574;52.040;5.692;2023-05-14T10:38:31;8.98;;;7.32;;
25717;SDS011;13574;52.040;5.692;2023-05-14T10:40:59;10.23;;;7.60;;
25717;SDS011;13574;52.040;5.692;2023-05-14T10:43:29;11.93;;;7.25;;
25717;SDS011;13574;52.040;5.692;2023-05-14T10:45:57;7.57;;;6.25;;
25717;SDS011;13574;52.040;5.692;2023-05-14T10:48:25;9.63;;;7.28;;
25717;SDS011;13574;52.040;5.692;2023-05-14T10:50:51;10.48;;;7.05;;
25717;SDS011;13574;52.040;5.692;2023-05-14T10:53:17;9.65;;;6.05;;
25717;SDS011;13574;52.040;5.692;2023-05-14T10:55:43;7.90;;;6.22;;
25717;SDS011;13574;52.040;5.692;2023-05-14T10:58:10;6.43;;;5.30;;
25717;SDS011;13574;52.040;5.692;2023-05-14T11:00:36;7.80;;;6.32;;
25717;SDS011;13574;52.040;5.692;2023-05-14T11:03:03;8.40;;;5.93;;
25717;SDS011;13574;52.040;5.692;2023-05-14T11:05:30;11.02;;;6.50;;
25717;SDS011;13574;52.040;5.692;2023-05-14T11:07:57;8.02;;;5.78;;
25717;SDS011;13574;52.040;5.692;2023-05-14T11:10:25;7.82;;;6.50;;
25717;SDS011;13574;52.040;5.692;2023-05-14T11:12:54;7.40;;;5.78;;
25717;SDS011;13574;52.040;5.692;2023-05-14T11:15:22;11.65;;;6.50;;
25717;SDS011;13574;52.040;5.692;2023-05-14T11:17:50;9.95;;;6.68;;
25717;SDS011;13574;52.040;5.692;2023-05-14T11:20:16;8.45;;;6.07;;
25717;SDS011;13574;52.040;5.692;2023-05-14T11:22:42;6.88;;;5.70;;
25717;SDS011;13574;52.040;5.692;2023-05-14T11:25:09;7.60;;;5.25;;
25717;SDS011;13574;52.040;5.692;2023-05-14T11:27:38;8.73;;;5.90;;
25717;SDS011;13574;52.040;5.692;2023-05-14T11:30:12;6.25;;;5.25;;
25717;SDS011;13574;52.040;5.692;2023-05-14T11:32:42;8.60;;;5.82;;
25717;SDS011;13574;52.040;5.692;2023-05-14T11:35:09;6.57;;;5.53;;
25717;SDS011;13574;52.040;5.692;2023-05-14T11:37:35;7.70;;;5.93;;
25717;SDS011;13574;52.040;5.692;2023-05-14T11:40:01;8.35;;;5.65;;
25717;SDS011;13574;52.040;5.692;2023-05-14T11:42:26;11.07;;;5.90;;
25717;SDS011;13574;52.040;5.692;2023-05-14T11:44:52;10.68;;;6.82;;
25717;SDS011;13574;52.040;5.692;2023-05-14T11:47:19;9.20;;;5.78;;
25717;SDS011;13574;52.040;5.692;2023-05-14T11:49:45;8.40;;;5.60;;
25717;SDS011;13574;52.040;5.692;2023-05-14T11:52:12;9.55;;;5.70;;
25717;SDS011;13574;52.040;5.692;2023-05-14T11:54:39;7.63;;;5.63;;
25717;SDS011;13574;52.040;5.692;2023-05-14T11:57:09;8.65;;;5.85;;
25717;SDS011;13574;52.040;5.692;2023-05-14T11:59:36;7.68;;;6.00;;
25717;SDS011;13574;52.040;5.692;2023-05-14T12:02:03;10.35;;;6.25;;
25717;SDS011;13574;52.040;5.692;2023-05-14T12:04:29;7.90;;;6.10;;
25717;SDS011;13574;52.040;5.692;2023-05-14T12:06:57;9.98;;;6.28;;
25717;SDS011;13574;52.040;5.692;2023-05-14T12:09:24;9.32;;;6.30;;
25717;SDS011;13574;52.040;5.692;2023-05-14T12:11:50;8.93;;;6.00;;
25717;SDS011;13574;52.040;5.692;2023-05-14T12:14:22;7.38;;;6.00;;
25717;SDS011;13574;52.040;5.692;2023-05-14T12:16:49;7.13;;;5.50;;
25717;SDS011;13574;52.040;5.692;2023-05-14T12:19:16;8.50;;;5.80;;
25717;SDS011;13574;52.040;5.692;2023-05-14T12:21:43;6.40;;;5.80;;
25717;SDS011;13574;52.040;5.692;2023-05-14T12:24:16;8.43;;;5.90;;
25717;SDS011;13574;52.040;5.692;2023-05-14T12:26:43;9.85;;;6.07;;
25717;SDS011;13574;52.040;5.692;2023-05-14T12:29:13;9.18;;;5.60;;
25717;SDS011;13574;52.040;5.692;2023-05-14T12:31:46;9.70;;;5.60;;
25717;SDS011;13574;52.040;5.692;2023-05-14T12:34:13;9.95;;;6.85;;
25717;SDS011;13574;52.040;5.692;2023-05-14T12:36:39;8.95;;;6.13;;
25717;SDS011;13574;52.040;5.692;2023-05-14T12:39:05;9.00;;;6.00;;
25717;SDS011;13574;52.040;5.692;2023-05-14T12:41:32;8.02;;;6.15;;
25717;SDS011;13574;52.040;5.692;2023-05-14T12:43:58;7.30;;;6.13;;
25717;SDS011;13574;52.040;5.692;2023-05-14T12:46:24;12.55;;;6.32;;
25717;SDS011;13574;52.040;5.692;2023-05-14T12:48:51;12.15;;;6.75;;
25717;SDS011;13574;52.040;5.692;2023-05-14T12:51:20;9.75;;;6.30;;
25717;SDS011;13574;52.040;5.692;2023-05-14T12:53:46;11.63;;;6.07;;
25717;SDS011;13574;52.040;5.692;2023-05-14T12:56:12;7.60;;;5.85;;
25717;SDS011;13574;52.040;5.692;2023-05-14T12:58:38;7.07;;;5.78;;
25717;SDS011;13574;52.040;5.692;2023-05-14T13:01:04;8.43;;;6.30;;
25717;SDS011;13574;52.040;5.692;2023-05-14T13:03:30;9.43;;;6.20;;
25717;SDS011;13574;52.040;5.692;2023-05-14T13:05:55;9.02;;;5.78;;
25717;SDS011;13574;52.040;5.692;2023-05-14T13:08:21;11.90;;;6.70;;
25717;SDS011;13574;52.040;5.692;2023-05-14T13:10:50;6.93;;;5.20;;
25717;SDS011;13574;52.040;5.692;2023-05-14T13:13:16;9.05;;;5.88;;
25717;SDS011;13574;52.040;5.692;2023-05-14T13:15:42;8.70;;;5.38;;
25717;SDS011;13574;52.040;5.692;2023-05-14T13:18:10;9.00;;;6.13;;
25717;SDS011;13574;52.040;5.692;2023-05-14T13:20:39;8.40;;;6.03;;
25717;SDS011;13574;52.040;5.692;2023-05-14T13:23:05;9.68;;;6.25;;
25717;SDS011;13574;52.040;5.692;2023-05-14T13:25:31;7.85;;;5.55;;
25717;SDS011;13574;52.040;5.692;2023-05-14T13:27:57;7.75;;;5.30;;
25717;SDS011;13574;52.040;5.692;2023-05-14T13:30:22;7.03;;;5.63;;
25717;SDS011;13574;52.040;5.692;2023-05-14T13:32:48;7.55;;;5.90;;
25717;SDS011;13574;52.040;5.692;2023-05-14T13:35:14;9.68;;;6.10;;
25717;SDS011;13574;52.040;5.692;2023-05-14T13:37:41;10.50;;;6.68;;
25717;SDS011;13574;52.040;5.692;2023-05-14T13:40:07;8.27;;;5.97;;
25717;SDS011;13574;52.040;5.692;2023-05-14T13:42:34;8.77;;;5.55;;
25717;SDS011;13574;52.040;5.692;2023-05-14T13:45:01;10.57;;;7.18;;
25717;SDS011;13574;52.040;5.692;2023-05-14T13:47:27;8.35;;;6.10;;
25717;SDS011;13574;52.040;5.692;2023-05-14T13:49:53;12.55;;;6.10;;
25717;SDS011;13574;52.040;5.692;2023-05-14T13:52:20;9.40;;;5.75;;
25717;SDS011;13574;52.040;5.692;2023-05-14T13:54:46;7.25;;;5.80;;
25717;SDS011;13574;52.040;5.692;2023-05-14T13:57:12;9.15;;;6.25;;
25717;SDS011;13574;52.040;5.692;2023-05-14T13:59:38;10.35;;;6.55;;
25717;SDS011;13574;52.040;5.692;2023-05-14T14:02:04;8.77;;;5.97;;
25717;SDS011;13574;52.040;5.692;2023-05-14T14:04:30;9.70;;;6.35;;
25717;SDS011;13574;52.040;5.692;2023-05-14T14:06:56;11.30;;;6.60;;
25717;SDS011;13574;52.040;5.692;2023-05-14T14:09:22;9.32;;;5.72;;
25717;SDS011;13574;52.040;5.692;2023-05-14T14:11:48;8.23;;;5.72;;
25717;SDS011;13574;52.040;5.692;2023-05-14T14:14:14;10.93;;;6.10;;
25717;SDS011;13574;52.040;5.692;2023-05-14T14:16:40;10.20;;;6.10;;
25717;SDS011;13574;52.040;5.692;2023-05-14T14:19:06;11.88;;;6.03;;
25717;SDS011;13574;52.040;5.692;2023-05-14T14:21:31;10.20;;;6.38;;
25717;SDS011;13574;52.040;5.692;2023-05-14T14:23:59;9.85;;;5.70;;
25717;SDS011;13574;52.040;5.692;2023-05-14T14:26:25;9.30;;;6.00;;
25717;SDS011;13574;52.040;5.692;2023-05-14T14:28:52;8.35;;;5.70;;
25717;SDS011;13574;52.040;5.692;2023-05-14T14:31:18;9.52;;;5.40;;
25717;SDS011;13574;52.040;5.692;2023-05-14T14:33:44;6.85;;;5.13;;
25717;SDS011;13574;52.040;5.692;2023-05-14T14:36:10;9.27;;;5.53;;
25717;SDS011;13574;52.040;5.692;2023-05-14T14:38:35;7.72;;;5.47;;
25717;SDS011;13574;52.040;5.692;2023-05-14T14:41:03;8.27;;;5.35;;